sensor_id;sensor_type;location;lat;lon;timestamp;noise_LAeq;noise_LA_min;noise_LA_max;noise_LA01;noise_LA95
47109;Laerm;32856;51.422;6.794;2023-05-14T00:01:18;50.57;46.59;53.69;;
47109;Laerm;32856;51.422;6.794;2023-05-14T00:03:45;57.02;46.93;70.86;;
47109;Laerm;32856;51.422;6.794;2023-05-14T00:06:13;57.31;45.83;74.25;;
47109;Laerm;32856;51.422;6.794;2023-05-14T00:08:40;52.68;45.04;69.27;;
47109;Laerm;32856;51.422;6.794;2023-05-14T00:11:08;56.97;46.66;74.45;;
47109;Laerm;32856;51.422;6.794;2023-05-14T00:13:36;52.56;49.03;56.62;;
47109;Laerm;32856;51.422;6.794;2023-05-14T00:16:04;51.54;46.45;58.81;;
47109;Laerm;32856;51.422;6.794;2023-05-14T00:18:31;54.86;47.52;72.42;;
47109;Laerm;32856;51.422;6.794;2023-05-14T00:20:59;54.26;48.18;68.44;;
47109;Laerm;32856;51.422;6.794;2023-05-14T00:23:26;54.42;48.77;71.60;;
47109;Laerm;32856;51.422;6.794;2023-05-14T00:25:53;51.07;46.97;59.51;;
47109;Laerm;32856;51.422;6.794;2023-05-14T00:28:21;51.94;47.52;55.50;;
47109;Laerm;32856;51.422;6.794;2023-05-14T00:30:49;51.42;47.54;57.55;;
47109;Laerm;32856;51.422;6.794;2023-05-14T00:33:17;57.12;44.87;70.62;;
47109;Laerm;32856;51.422;6.794;2023-05-14T00:35:44;55.50;46.40;71.08;;
47109;Laerm;32856;51.422;6.794;2023-05-14T00:38:11;55.12;46.48;72.99;;
47109;Laerm;32856;51.422;6.794;2023-05-14T00:40:42;53.67;45.91;70.75;;
47109;Laerm;32856;51.422;6.794;2023-05-14T00:43:14;51.57;48.03;56.38;;
47109;Laerm;32856;51.422;6.794;2023-05-14T00:45:42;56.76;49.77;70.96;;
47109;Laerm;32856;51.422;6.794;2023-05-14T00:48:11;51.24;47.00;62.80;;
47109;Laerm;32856;51.422;6.794;2023-05-14T00:50:38;60.77;48.90;75.72;;
47109;Laerm;32856;51.422;6.794;2023-05-14T00:53:05;56.63;48.80;76.78;;
47109;Laerm;32856;51.422;6.794;2023-05-14T00:55:35;48.97;44.65;53.24;;
47109;Laerm;32856;51.422;6.794;2023-05-14T00:58:03;51.45;47.22;57.26;;
47109;Laerm;32856;51.422;6.794;2023-05-14T01:00:33;53.18;46.07;71.65;;
47109;Laerm;32856;51.422;6.794;2023-05-14T01:03:02;54.45;45.42;71.15;;
47109;Laerm;32856;51.422;6.794;2023-05-14T01:05:32;58.29;47.40;78.32;;
47109;Laerm;32856;51.422;6.794;2023-05-14T01:08:02;57.05;45.33;74.09;;
47109;Laerm;32856;51.422;6.794;2023-05-14T01:10:36;51.59;45.11;68.07;;
47109;Laerm;32856;51.422;6.794;2023-05-14T01:13:07;57.13;44.39;71.92;;
47109;Laerm;32856;51.422;6.794;2023-05-14T01:15:37;50.84;46.91;56.44;;
47109;Laerm;32856;51.422;6.794;2023-05-14T01:18:07;54.64;45.48;72.95;;
47109;Laerm;32856;51.422;6.794;2023-05-14T01:20:36;57.04;45.89;75.07;;
47109;Laerm;32856;51.422;6.794;2023-05-14T01:23:04;52.14;46.33;66.00;;
47109;Laerm;32856;51.422;6.794;2023-05-14T01:25:32;57.27;47.02;76.80;;
47109;Laerm;32856;51.422;6.794;2023-05-14T01:28:02;49.67;45.75;54.14;;
47109;Laerm;32856;51.422;6.794;2023-05-14T01:30:33;55.70;46.95;68.37;;
47109;Laerm;32856;51.422;6.794;2023-05-14T01:33:02;51.71;45.45;57.12;;
47109;Laerm;32856;51.422;6.794;2023-05-14T01:35:31;50.42;45.04;56.02;;
47109;Laerm;32856;51.422;6.794;2023-05-14T01:38:00;49.75;44.97;55.36;;
47109;Laerm;32856;51.422;6.794;2023-05-14T01:40:29;49.84;45.36;55.31;;
47109;Laerm;32856;51.422;6.794;2023-05-14T01:42:58;50.21;45.89;56.56;;
47109;Laerm;32856;51.422;6.794;2023-05-14T01:45:26;56.34;47.20;75.27;;
47109;Laerm;32856;51.422;6.794;2023-05-14T01:47:53;51.17;46.13;56.37;;
47109;Laerm;32856;51.422;6.794;2023-05-14T01:50:21;55.52;45.39;74.51;;
47109;Laerm;32856;51.422;6.794;2023-05-14T01:52:48;50.26;44.43;56.27;;
47109;Laerm;32856;51.422;6.794;2023-05-14T01:55:18;48.87;44.27;56.17;;
47109;Laerm;32856;51.422;6.794;2023-05-14T01:57:47;48.55;43.90;55.63;;
47109;Laerm;32856;51.422;6.794;2023-05-14T02:00:14;47.60;43.68;55.92;;
47109;Laerm;32856;51.422;6.794;2023-05-14T02:02:42;54.45;43.54;73.63;;
47109;Laerm;32856;51.422;6.794;2023-05-14T02:05:10;53.91;43.86;71.71;;
47109;Laerm;32856;51.422;6.794;2023-05-14T02:07:37;54.23;44.51;71.46;;
47109;Laerm;32856;51.422;6.794;2023-05-14T02:10:05;49.87;44.87;58.10;;
47109;Laerm;32856;51.422;6.794;2023-05-14T02:12:33;53.72;45.91;71.15;;
47109;Laerm;32856;51.422;6.794;2023-05-14T02:15:02;53.01;45.36;70.05;;
47109;Laerm;32856;51.422;6.794;2023-05-14T02:17:29;54.17;44.80;72.87;;
47109;Laerm;32856;51.422;6.794;2023-05-14T02:19:57;55.18;44.94;73.31;;
47109;Laerm;32856;51.422;6.794;2023-05-14T02:22:24;48.52;42.76;57.35;;
47109;Laerm;32856;51.422;6.794;2023-05-14T02:24:51;49.28;44.35;57.08;;
47109;Laerm;32856;51.422;6.794;2023-05-14T02:27:18;53.64;45.27;67.85;;
47109;Laerm;32856;51.422;6.794;2023-05-14T02:29:46;49.64;43.14;60.38;;
47109;Laerm;32856;51.422;6.794;2023-05-14T02:32:15;57.74;44.03;76.64;;
47109;Laerm;32856;51.422;6.794;2023-05-14T02:34:42;50.71;45.57;61.61;;
47109;Laerm;32856;51.422;6.794;2023-05-14T02:37:09;49.54;44.54;63.00;;
47109;Laerm;32856;51.422;6.794;2023-05-14T02:39:37;53.43;44.43;70.29;;
47109;Laerm;32856;51.422;6.794;2023-05-14T02:42:04;51.02;44.87;64.25;;
47109;Laerm;32856;51.422;6.794;2023-05-14T02:44:32;54.75;44.87;70.37;;
47109;Laerm;32856;51.422;6.794;2023-05-14T02:46:59;56.97;44.43;76.11;;
47109;Laerm;32856;51.422;6.794;2023-05-14T02:49:28;58.44;46.71;79.62;;
47109;Laerm;32856;51.422;6.794;2023-05-14T02:51:55;54.31;45.33;66.12;;
47109;Laerm;32856;51.422;6.794;2023-05-14T02:54:23;55.64;45.30;72.58;;
47109;Laerm;32856;51.422;6.794;2023-05-14T02:56:50;56.11;46.57;73.30;;
47109;Laerm;32856;51.422;6.794;2023-05-14T02:59:17;52.46;45.51;63.24;;
47109;Laerm;32856;51.422;6.794;2023-05-14T03:01:45;56.39;46.43;73.17;;
47109;Laerm;32856;51.422;6.794;2023-05-14T03:04:12;53.23;46.50;62.01;;
47109;Laerm;32856;51.422;6.794;2023-05-14T03:06:41;53.14;45.86;62.36;;
47109;Laerm;32856;51.422;6.794;2023-05-14T03:09:08;53.68;46.57;64.13;;
47109;Laerm;32856;51.422;6.794;2023-05-14T03:11:35;56.63;47.70;73.49;;
47109;Laerm;32856;51.422;6.794;2023-05-14T03:14:03;53.94;46.95;68.78;;
47109;Laerm;32856;51.422;6.794;2023-05-14T03:16:30;52.54;45.07;62.12;;
47109;Laerm;32856;51.422;6.794;2023-05-14T03:18:57;58.20;46.48;75.55;;
47109;Laerm;32856;51.422;6.794;2023-05-14T03:21:25;54.97;44.87;71.33;;
47109;Laerm;32856;51.422;6.794;2023-05-14T03:23:53;53.30;46.38;63.50;;
47109;Laerm;32856;51.422;6.794;2023-05-14T03:26:21;54.05;46.64;65.06;;
47109;Laerm;32856;51.422;6.794;2023-05-14T03:28:48;54.96;46.25;69.81;;
47109;Laerm;32856;51.422;6.794;2023-05-14T03:31:16;52.86;44.76;64.36;;
47109;Laerm;32856;51.422;6.794;2023-05-14T03:33:43;53.76;44.15;71.50;;
47109;Laerm;32856;51.422;6.794;2023-05-14T03:36:10;57.01;47.83;75.99;;
47109;Laerm;32856;51.422;6.794;2023-05-14T03:38:38;52.37;47.34;61.96;;
47109;Laerm;32856;51.422;6.794;2023-05-14T03:41:07;55.29;44.23;72.35;;
47109;Laerm;32856;51.422;6.794;2023-05-14T03:43:34;52.12;45.20;61.18;;
47109;Laerm;32856;51.422;6.794;2023-05-14T03:46:01;58.42;47.83;75.71;;
47109;Laerm;32856;51.422;6.794;2023-05-14T03:48:29;52.02;46.55;59.94;;
47109;Laerm;32856;51.422;6.794;2023-05-14T03:50:56;51.72;47.57;59.99;;
47109;Laerm;32856;51.422;6.794;2023-05-14T03:53:23;56.45;46.25;75.70;;
47109;Laerm;32856;51.422;6.794;2023-05-14T03:55:51;52.42;47.67;63.45;;
47109;Laerm;32856;51.422;6.794;2023-05-14T03:58:19;57.60;46.69;74.17;;
47109;Laerm;32856;51.422;6.794;2023-05-14T04:00:47;51.86;46.18;62.93;;
47109;Laerm;32856;51.422;6.794;2023-05-14T04:03:14;51.41;47.10;63.75;;
47109;Laerm;32856;51.422;6.794;2023-05-14T04:05:42;54.69;45.83;72.28;;
47109;Laerm;32856;51.422;6.794;2023-05-14T04:08:09;56.74;46.40;75.00;;
47109;Laerm;32856;51.422;6.794;2023-05-14T04:10:36;54.71;46.30;73.14;;
47109;Laerm;32856;51.422;6.794;2023-05-14T04:13:04;52.51;45.72;68.22;;
47109;Laerm;32856;51.422;6.794;2023-05-14T04:15:32;49.63;45.30;58.52;;
47109;Laerm;32856;51.422;6.794;2023-05-14T04:18:00;58.26;46.91;77.03;;
47109;Laerm;32856;51.422;6.794;2023-05-14T04:20:28;56.37;46.95;72.47;;
47109;Laerm;32856;51.422;6.794;2023-05-14T04:22:55;55.82;48.39;69.61;;
47109;Laerm;32856;51.422;6.794;2023-05-14T04:25:22;52.05;44.80;63.38;;
47109;Laerm;32856;51.422;6.794;2023-05-14T04:27:50;55.19;47.00;70.52;;
47109;Laerm;32856;51.422;6.794;2023-05-14T04:30:17;52.66;44.94;63.39;;
47109;Laerm;32856;51.422;6.794;2023-05-14T04:32:46;59.56;46.87;77.32;;
47109;Laerm;32856;51.422;6.794;2023-05-14T04:35:13;56.85;46.20;74.64;;
47109;Laerm;32856;51.422;6.794;2023-05-14T04:37:40;60.57;46.25;77.30;;
47109;Laerm;32856;51.422;6.794;2023-05-14T04:40:08;58.23;44.58;73.80;;
47109;Laerm;32856;51.422;6.794;2023-05-14T04:42:37;54.83;43.81;71.26;;
47109;Laerm;32856;51.422;6.794;2023-05-14T04:45:05;54.22;44.97;72.25;;
47109;Laerm;32856;51.422;6.794;2023-05-14T04:47:34;55.71;44.65;74.85;;
47109;Laerm;32856;51.422;6.794;2023-05-14T04:50:02;54.74;45.04;73.11;;
47109;Laerm;32856;51.422;6.794;2023-05-14T04:52:30;54.22;45.07;71.71;;
47109;Laerm;32856;51.422;6.794;2023-05-14T04:54:57;51.83;45.72;64.61;;
47109;Laerm;32856;51.422;6.794;2023-05-14T04:57:24;50.15;45.30;57.64;;
47109;Laerm;32856;51.422;6.794;2023-05-14T04:59:52;55.46;45.69;75.20;;
47109;Laerm;32856;51.422;6.794;2023-05-14T05:02:19;50.40;46.80;57.46;;
47109;Laerm;32856;51.422;6.794;2023-05-14T05:04:46;50.39;45.60;65.80;;
47109;Laerm;32856;51.422;6.794;2023-05-14T05:07:15;50.39;46.07;62.58;;
47109;Laerm;32856;51.422;6.794;2023-05-14T05:09:42;50.20;45.27;60.34;;
47109;Laerm;32856;51.422;6.794;2023-05-14T05:12:10;51.34;43.29;66.68;;
47109;Laerm;32856;51.422;6.794;2023-05-14T05:14:37;54.32;44.39;70.93;;
47109;Laerm;32856;51.422;6.794;2023-05-14T05:17:04;56.56;46.84;73.09;;
47109;Laerm;32856;51.422;6.794;2023-05-14T05:19:32;56.21;46.35;71.79;;
47109;Laerm;32856;51.422;6.794;2023-05-14T05:22:08;57.68;43.77;72.74;;
47109;Laerm;32856;51.422;6.794;2023-05-14T05:24:37;47.59;43.34;57.27;;
47109;Laerm;32856;51.422;6.794;2023-05-14T05:27:04;55.21;43.99;73.51;;
47109;Laerm;32856;51.422;6.794;2023-05-14T05:29:32;51.21;45.27;63.61;;
47109;Laerm;32856;51.422;6.794;2023-05-14T05:31:59;56.90;44.51;72.54;;
47109;Laerm;32856;51.422;6.794;2023-05-14T05:34:27;54.81;46.07;74.22;;
47109;Laerm;32856;51.422;6.794;2023-05-14T05:36:54;58.51;45.07;75.21;;
47109;Laerm;32856;51.422;6.794;2023-05-14T05:39:21;56.73;45.11;73.42;;
47109;Laerm;32856;51.422;6.794;2023-05-14T05:41:50;55.26;44.73;69.28;;
47109;Laerm;32856;51.422;6.794;2023-05-14T05:44:17;58.23;44.69;75.95;;
47109;Laerm;32856;51.422;6.794;2023-05-14T05:46:44;63.09;45.14;78.08;;
47109;Laerm;32856;51.422;6.794;2023-05-14T05:49:12;58.03;44.87;74.98;;
47109;Laerm;32856;51.422;6.794;2023-05-14T05:51:39;57.48;45.20;76.97;;
47109;Laerm;32856;51.422;6.794;2023-05-14T05:54:06;58.76;45.45;73.78;;
47109;Laerm;32856;51.422;6.794;2023-05-14T05:56:34;59.02;45.11;74.09;;
47109;Laerm;32856;51.422;6.794;2023-05-14T05:59:02;58.48;45.20;74.08;;
47109;Laerm;32856;51.422;6.794;2023-05-14T06:01:30;52.80;44.97;70.14;;
47109;Laerm;32856;51.422;6.794;2023-05-14T06:03:57;56.39;45.77;74.84;;
47109;Laerm;32856;51.422;6.794;2023-05-14T06:06:24;59.05;46.02;76.38;;
47109;Laerm;32856;51.422;6.794;2023-05-14T06:08:52;55.59;45.75;74.59;;
47109;Laerm;32856;51.422;6.794;2023-05-14T06:11:19;51.05;44.80;59.16;;
47109;Laerm;32856;51.422;6.794;2023-05-14T06:13:46;57.37;45.83;74.68;;
47109;Laerm;32856;51.422;6.794;2023-05-14T06:16:15;49.36;44.69;59.79;;
47109;Laerm;32856;51.422;6.794;2023-05-14T06:18:43;58.45;45.72;75.33;;
47109;Laerm;32856;51.422;6.794;2023-05-14T06:21:10;58.91;44.90;74.27;;
47109;Laerm;32856;51.422;6.794;2023-05-14T06:23:37;56.61;45.69;73.41;;
47109;Laerm;32856;51.422;6.794;2023-05-14T06:26:05;62.00;46.97;77.88;;
47109;Laerm;32856;51.422;6.794;2023-05-14T06:28:32;58.22;46.40;74.28;;
47109;Laerm;32856;51.422;6.794;2023-05-14T06:30:59;53.47;47.16;67.86;;
47109;Laerm;32856;51.422;6.794;2023-05-14T06:33:28;55.29;46.10;72.38;;
47109;Laerm;32856;51.422;6.794;2023-05-14T06:35:57;62.07;46.73;81.29;;
47109;Laerm;32856;51.422;6.794;2023-05-14T06:38:24;59.86;45.66;76.67;;
47109;Laerm;32856;51.422;6.794;2023-05-14T06:40:52;59.72;46.95;78.33;;
47109;Laerm;32856;51.422;6.794;2023-05-14T06:43:19;56.87;46.07;71.47;;
47109;Laerm;32856;51.422;6.794;2023-05-14T06:45:47;54.86;45.80;73.21;;
47109;Laerm;32856;51.422;6.794;2023-05-14T06:48:14;58.14;45.66;74.33;;
47109;Laerm;32856;51.422;6.794;2023-05-14T06:50:45;58.57;46.62;74.08;;
47109;Laerm;32856;51.422;6.794;2023-05-14T06:53:12;61.61;46.35;74.73;;
47109;Laerm;32856;51.422;6.794;2023-05-14T06:55:40;50.13;46.13;63.72;;
47109;Laerm;32856;51.422;6.794;2023-05-14T06:58:07;61.46;46.52;77.08;;
47109;Laerm;32856;51.422;6.794;2023-05-14T07:00:35;56.69;46.64;72.33;;
47109;Laerm;32856;51.422;6.794;2023-05-14T07:03:03;57.13;46.88;70.61;;
47109;Laerm;32856;51.422;6.794;2023-05-14T07:05:30;55.68;45.54;71.42;;
47109;Laerm;32856;51.422;6.794;2023-05-14T07:07:59;61.57;47.52;75.13;;
47109;Laerm;32856;51.422;6.794;2023-05-14T07:10:26;61.09;47.38;75.41;;
47109;Laerm;32856;51.422;6.794;2023-05-14T07:12:53;62.68;47.98;76.93;;
47109;Laerm;32856;51.422;6.794;2023-05-14T07:15:21;57.74;47.63;71.18;;
47109;Laerm;32856;51.422;6.794;2023-05-14T07:17:48;59.61;48.49;73.26;;
47109;Laerm;32856;51.422;6.794;2023-05-14T07:20:15;64.65;47.84;82.07;;
47109;Laerm;32856;51.422;6.794;2023-05-14T07:22:43;63.60;47.28;79.98;;
47109;Laerm;32856;51.422;6.794;2023-05-14T07:25:11;63.63;48.71;77.35;;
47109;Laerm;32856;51.422;6.794;2023-05-14T07:27:39;59.72;47.22;73.89;;
47109;Laerm;32856;51.422;6.794;2023-05-14T07:30:06;59.38;47.86;76.99;;
47109;Laerm;32856;51.422;6.794;2023-05-14T07:32:34;58.83;48.46;74.05;;
47109;Laerm;32856;51.422;6.794;2023-05-14T07:35:01;62.52;47.90;75.83;;
47109;Laerm;32856;51.422;6.794;2023-05-14T07:37:29;62.02;48.28;74.53;;
47109;Laerm;32856;51.422;6.794;2023-05-14T07:39:56;61.56;48.80;74.25;;
47109;Laerm;32856;51.422;6.794;2023-05-14T07:42:25;60.86;48.46;75.47;;
47109;Laerm;32856;51.422;6.794;2023-05-14T07:45:01;59.89;47.84;74.49;;
47109;Laerm;32856;51.422;6.794;2023-05-14T07:47:29;59.95;47.04;74.63;;
47109;Laerm;32856;51.422;6.794;2023-05-14T07:49:57;58.33;48.92;72.72;;
47109;Laerm;32856;51.422;6.794;2023-05-14T07:52:24;59.85;48.25;71.66;;
47109;Laerm;32856;51.422;6.794;2023-05-14T07:54:51;64.88;46.91;82.20;;
47109;Laerm;32856;51.422;6.794;2023-05-14T07:57:19;63.11;48.71;77.09;;
47109;Laerm;32856;51.422;6.794;2023-05-14T07:59:48;59.67;49.15;72.24;;
47109;Laerm;32856;51.422;6.794;2023-05-14T08:02:15;59.22;48.40;72.69;;
47109;Laerm;32856;51.422;6.794;2023-05-14T08:04:43;59.85;46.73;83.08;;
47109;Laerm;32856;51.422;6.794;2023-05-14T08:07:10;61.20;46.57;76.97;;
47109;Laerm;32856;51.422;6.794;2023-05-14T08:09:38;59.01;46.97;76.13;;
47109;Laerm;32856;51.422;6.794;2023-05-14T08:12:05;65.38;48.74;79.04;;
47109;Laerm;32856;51.422;6.794;2023-05-14T08:14:33;60.59;48.91;72.62;;
47109;Laerm;32856;51.422;6.794;2023-05-14T08:17:02;63.65;49.08;77.13;;
47109;Laerm;32856;51.422;6.794;2023-05-14T08:19:29;62.37;48.63;77.45;;
47109;Laerm;32856;51.422;6.794;2023-05-14T08:21:59;61.94;48.18;75.90;;
47109;Laerm;32856;51.422;6.794;2023-05-14T08:24:26;63.40;48.87;76.83;;
47109;Laerm;32856;51.422;6.794;2023-05-14T08:26:54;63.69;48.28;77.37;;
47109;Laerm;32856;51.422;6.794;2023-05-14T08:29:21;62.47;49.04;79.41;;
47109;Laerm;32856;51.422;6.794;2023-05-14T08:31:49;62.88;49.75;74.20;;
47109;Laerm;32856;51.422;6.794;2023-05-14T08:34:18;63.19;49.52;77.41;;
47109;Laerm;32856;51.422;6.794;2023-05-14T08:36:45;68.29;49.97;86.35;;
47109;Laerm;32856;51.422;6.794;2023-05-14T08:39:13;66.99;50.19;85.16;;
47109;Laerm;32856;51.422;6.794;2023-05-14T08:41:40;61.96;49.44;76.24;;
47109;Laerm;32856;51.422;6.794;2023-05-14T08:44:10;63.54;49.46;76.28;;
47109;Laerm;32856;51.422;6.794;2023-05-14T08:46:38;63.64;47.50;76.97;;
47109;Laerm;32856;51.422;6.794;2023-05-14T08:49:09;63.17;48.70;73.85;;
47109;Laerm;32856;51.422;6.794;2023-05-14T08:51:42;63.20;50.99;74.37;;
47109;Laerm;32856;51.422;6.794;2023-05-14T08:54:09;61.30;48.51;74.15;;
47109;Laerm;32856;51.422;6.794;2023-05-14T08:56:39;67.10;48.64;83.46;;
47109;Laerm;32856;51.422;6.794;2023-05-14T08:59:07;62.97;49.34;75.54;;
47109;Laerm;32856;51.422;6.794;2023-05-14T09:01:36;67.32;49.12;86.66;;
47109;Laerm;32856;51.422;6.794;2023-05-14T09:04:03;64.13;47.83;83.13;;
47109;Laerm;32856;51.422;6.794;2023-05-14T09:06:34;64.88;49.20;79.36;;
47109;Laerm;32856;51.422;6.794;2023-05-14T09:09:03;66.19;50.26;80.82;;
47109;Laerm;32856;51.422;6.794;2023-05-14T09:11:31;61.90;49.90;75.36;;
47109;Laerm;32856;51.422;6.794;2023-05-14T09:13:58;52.41;48.29;61.07;;
47109;Laerm;32856;51.422;6.794;2023-05-14T09:16:26;62.84;49.55;77.58;;
47109;Laerm;32856;51.422;6.794;2023-05-14T09:18:53;61.75;49.56;75.96;;
47109;Laerm;32856;51.422;6.794;2023-05-14T09:21:21;64.63;49.87;78.22;;
47109;Laerm;32856;51.422;6.794;2023-05-14T09:23:52;63.86;50.47;77.74;;
47109;Laerm;32856;51.422;6.794;2023-05-14T09:26:23;68.32;49.23;87.35;;
47109;Laerm;32856;51.422;6.794;2023-05-14T09:28:54;63.32;48.94;77.66;;
47109;Laerm;32856;51.422;6.794;2023-05-14T09:31:22;63.33;49.20;73.92;;
47109;Laerm;32856;51.422;6.794;2023-05-14T09:33:49;61.07;49.77;73.09;;
47109;Laerm;32856;51.422;6.794;2023-05-14T09:36:17;62.41;48.99;73.81;;
47109;Laerm;32856;51.422;6.794;2023-05-14T09:38:44;67.30;50.71;83.61;;
47109;Laerm;32856;51.422;6.794;2023-05-14T09:41:12;63.96;49.85;75.70;;
47109;Laerm;32856;51.422;6.794;2023-05-14T09:43:40;61.54;49.78;74.83;;
47109;Laerm;32856;51.422;6.794;2023-05-14T09:46:08;63.50;48.74;78.67;;
47109;Laerm;32856;51.422;6.794;2023-05-14T09:48:35;67.75;49.14;88.51;;
47109;Laerm;32856;51.422;6.794;2023-05-14T09:51:03;62.78;49.34;76.24;;
47109;Laerm;32856;51.422;6.794;2023-05-14T09:53:31;61.90;49.00;76.54;;
47109;Laerm;32856;51.422;6.794;2023-05-14T09:55:59;63.96;49.24;77.64;;
47109;Laerm;32856;51.422;6.794;2023-05-14T09:58:26;62.10;49.71;74.64;;
47109;Laerm;32856;51.422;6.794;2023-05-14T10:00:56;63.31;49.70;78.13;;
47109;Laerm;32856;51.422;6.794;2023-05-14T10:03:24;65.81;50.68;81.58;;
47109;Laerm;32856;51.422;6.794;2023-05-14T10:05:52;62.89;48.34;76.71;;
47109;Laerm;32856;51.422;6.794;2023-05-14T10:08:21;62.98;48.05;80.59;;
47109;Laerm;32856;51.422;6.794;2023-05-14T10:10:50;64.41;48.98;75.42;;
47109;Laerm;32856;51.422;6.794;2023-05-14T10:13:21;61.87;48.77;74.23;;
47109;Laerm;32856;51.422;6.794;2023-05-14T10:15:51;64.46;49.33;74.34;;
47109;Laerm;32856;51.422;6.794;2023-05-14T10:18:23;67.18;49.45;86.08;;
47109;Laerm;32856;51.422;6.794;2023-05-14T10:20:52;65.01;49.02;78.49;;
47109;Laerm;32856;51.422;6.794;2023-05-14T10:23:23;62.80;47.70;75.47;;
47109;Laerm;32856;51.422;6.794;2023-05-14T10:25:50;61.36;50.63;75.88;;
47109;Laerm;32856;51.422;6.794;2023-05-14T10:28:17;62.47;48.99;78.73;;
47109;Laerm;32856;51.422;6.794;2023-05-14T10:30:45;62.86;48.83;76.23;;
47109;Laerm;32856;51.422;6.794;2023-05-14T10:33:13;64.82;49.03;83.65;;
47109;Laerm;32856;51.422;6.794;2023-05-14T10:35:56;64.42;50.49;77.35;;
47109;Laerm;32856;51.422;6.794;2023-05-14T10:38:25;65.99;50.47;80.10;;
47109;Laerm;32856;51.422;6.794;2023-05-14T10:40:57;62.55;48.94;77.53;;
47109;Laerm;32856;51.422;6.794;2023-05-14T10:43:25;67.50;50.34;85.22;;
47109;Laerm;32856;51.422;6.794;2023-05-14T10:45:53;67.19;49.06;87.31;;
47109;Laerm;32856;51.422;6.794;2023-05-14T10:48:21;63.74;49.20;77.79;;
47109;Laerm;32856;51.422;6.794;2023-05-14T10:50:49;64.63;49.00;80.01;;
47109;Laerm;32856;51.422;6.794;2023-05-14T10:53:18;59.14;45.94;73.66;;
47109;Laerm;32856;51.422;6.794;2023-05-14T10:55:46;62.14;50.25;74.16;;
47109;Laerm;32856;51.422;6.794;2023-05-14T10:58:13;62.09;49.67;74.96;;
47109;Laerm;32856;51.422;6.794;2023-05-14T11:00:41;67.22;50.81;85.44;;
47109;Laerm;32856;51.422;6.794;2023-05-14T11:03:08;64.10;51.20;77.12;;
47109;Laerm;32856;51.422;6.794;2023-05-14T11:05:38;65.20;49.91;85.54;;
47109;Laerm;32856;51.422;6.794;2023-05-14T11:08:07;67.02;49.91;82.74;;
47109;Laerm;32856;51.422;6.794;2023-05-14T11:10:35;63.16;50.11;74.63;;
47109;Laerm;32856;51.422;6.794;2023-05-14T11:13:03;63.33;48.51;73.17;;
47109;Laerm;32856;51.422;6.794;2023-05-14T11:15:32;63.55;49.72;77.08;;
47109;Laerm;32856;51.422;6.794;2023-05-14T11:17:59;64.58;51.40;74.70;;
47109;Laerm;32856;51.422;6.794;2023-05-14T11:20:26;62.67;48.91;76.90;;
47109;Laerm;32856;51.422;6.794;2023-05-14T11:22:54;63.07;47.98;80.29;;
47109;Laerm;32856;51.422;6.794;2023-05-14T11:25:22;61.83;47.46;74.83;;
47109;Laerm;32856;51.422;6.794;2023-05-14T11:27:52;65.16;48.66;78.85;;
47109;Laerm;32856;51.422;6.794;2023-05-14T11:30:23;62.17;50.14;73.82;;
47109;Laerm;32856;51.422;6.794;2023-05-14T11:32:51;62.72;50.45;73.63;;
47109;Laerm;32856;51.422;6.794;2023-05-14T11:35:19;65.37;48.60;78.52;;
47109;Laerm;32856;51.422;6.794;2023-05-14T11:37:48;63.56;50.24;76.45;;
47109;Laerm;32856;51.422;6.794;2023-05-14T11:40:16;61.59;48.32;74.10;;
47109;Laerm;32856;51.422;6.794;2023-05-14T11:42:44;63.53;48.07;74.75;;
47109;Laerm;32856;51.422;6.794;2023-05-14T11:45:13;63.71;49.75;77.60;;
47109;Laerm;32856;51.422;6.794;2023-05-14T11:47:50;63.15;48.58;75.00;;
47109;Laerm;32856;51.422;6.794;2023-05-14T11:50:18;63.10;47.90;77.41;;
47109;Laerm;32856;51.422;6.794;2023-05-14T11:52:47;62.27;49.80;73.82;;
47109;Laerm;32856;51.422;6.794;2023-05-14T11:55:15;66.63;49.95;82.12;;
47109;Laerm;32856;51.422;6.794;2023-05-14T11:57:43;62.86;47.68;76.79;;
47109;Laerm;32856;51.422;6.794;2023-05-14T12:00:10;63.00;47.83;77.34;;
47109;Laerm;32856;51.422;6.794;2023-05-14T12:02:43;63.69;49.79;74.26;;
47109;Laerm;32856;51.422;6.794;2023-05-14T12:05:11;63.12;51.58;73.52;;
47109;Laerm;32856;51.422;6.794;2023-05-14T12:07:38;62.80;50.32;76.01;;
47109;Laerm;32856;51.422;6.794;2023-05-14T12:10:07;66.40;49.21;91.39;;
47109;Laerm;32856;51.422;6.794;2023-05-14T12:12:35;64.08;50.65;75.76;;
47109;Laerm;32856;51.422;6.794;2023-05-14T12:15:09;61.98;48.74;74.19;;
47109;Laerm;32856;51.422;6.794;2023-05-14T12:17:36;64.73;49.88;77.04;;
47109;Laerm;32856;51.422;6.794;2023-05-14T12:20:05;64.73;49.80;77.98;;
47109;Laerm;32856;51.422;6.794;2023-05-14T12:22:35;61.70;47.86;82.55;;
47109;Laerm;32856;51.422;6.794;2023-05-14T12:25:03;62.47;47.40;76.48;;
47109;Laerm;32856;51.422;6.794;2023-05-14T12:27:31;63.95;46.91;74.54;;
47109;Laerm;32856;51.422;6.794;2023-05-14T12:29:59;68.73;47.62;86.08;;
47109;Laerm;32856;51.422;6.794;2023-05-14T12:32:45;62.56;49.35;75.43;;
47109;Laerm;32856;51.422;6.794;2023-05-14T12:35:15;63.99;49.25;77.39;;
47109;Laerm;32856;51.422;6.794;2023-05-14T12:37:42;63.87;49.78;77.00;;
47109;Laerm;32856;51.422;6.794;2023-05-14T12:40:10;63.17;50.15;76.76;;
47109;Laerm;32856;51.422;6.794;2023-05-14T12:42:37;62.59;50.20;76.76;;
47109;Laerm;32856;51.422;6.794;2023-05-14T12:45:05;64.20;50.64;76.03;;
47109;Laerm;32856;51.422;6.794;2023-05-14T12:47:33;62.18;50.79;76.12;;
47109;Laerm;32856;51.422;6.794;2023-05-14T12:50:01;65.44;51.46;80.90;;
47109;Laerm;32856;51.422;6.794;2023-05-14T12:52:29;62.07;51.94;72.63;;
47109;Laerm;32856;51.422;6.794;2023-05-14T12:55:00;63.71;52.40;76.77;;
47109;Laerm;32856;51.422;6.794;2023-05-14T12:57:27;65.46;52.31;77.94;;
47109;Laerm;32856;51.422;6.794;2023-05-14T12:59:55;64.05;51.18;76.23;;
47109;Laerm;32856;51.422;6.794;2023-05-14T13:02:22;63.54;51.68;74.50;;
47109;Laerm;32856;51.422;6.794;2023-05-14T13:04:50;63.51;50.77;76.02;;
47109;Laerm;32856;51.422;6.794;2023-05-14T13:07:17;64.63;50.89;76.56;;
47109;Laerm;32856;51.422;6.794;2023-05-14T13:09:46;66.17;49.51;81.73;;
47109;Laerm;32856;51.422;6.794;2023-05-14T13:12:13;64.62;48.34;84.31;;
47109;Laerm;32856;51.422;6.794;2023-05-14T13:14:40;63.92;51.04;74.74;;
47109;Laerm;32856;51.422;6.794;2023-05-14T13:17:07;69.75;51.46;80.50;;
47109;Laerm;32856;51.422;6.794;2023-05-14T13:19:35;63.90;49.72;82.63;;
47109;Laerm;32856;51.422;6.794;2023-05-14T13:22:02;62.56;49.72;76.04;;
47109;Laerm;32856;51.422;6.794;2023-05-14T13:24:30;66.92;50.97;82.52;;
47109;Laerm;32856;51.422;6.794;2023-05-14T13:26:58;63.50;49.06;78.25;;
47109;Laerm;32856;51.422;6.794;2023-05-14T13:29:26;63.49;50.71;76.10;;
47109;Laerm;32856;51.422;6.794;2023-05-14T13:31:54;62.18;48.21;73.00;;
47109;Laerm;32856;51.422;6.794;2023-05-14T13:34:21;61.51;49.08;72.47;;
47109;Laerm;32856;51.422;6.794;2023-05-14T13:36:48;63.80;49.85;82.07;;
47109;Laerm;32856;51.422;6.794;2023-05-14T13:39:16;64.28;49.69;75.37;;
47109;Laerm;32856;51.422;6.794;2023-05-14T13:41:47;60.50;49.29;72.47;;
47109;Laerm;32856;51.422;6.794;2023-05-14T13:44:17;62.31;50.00;74.44;;
47109;Laerm;32856;51.422;6.794;2023-05-14T13:46:44;62.89;49.80;81.58;;
47109;Laerm;32856;51.422;6.794;2023-05-14T13:49:11;62.35;50.66;74.46;;